Startpagina
METAR-TAF:

METAR-TAF

Vliegvelden :

Luchthaven Libreville Internationaal

Libreville, Gabon

breedte: 00-27N, lengte: 009-25E, hoogte: 12 m

Actueel weer

Dit bericht is 10 minuten geleden gemaakt, om 21:30 UTC
Wind 8 kt uit het zuiden, variërend tussen het zuidzuidoosten en het zuidzuidwesten
Temperatuur 25°C
Vochtigheid 79%
Druk 1016 hPa
Zicht 10 km of meer
Verspreide wolken op 1200 ft
Gebroken wolken op 2000 ft

METAR: FOOL 162130Z 18008KT 150V210 9999 SCT012 BKN020 25/21 Q1016 NOSIG

Tijdstip: 22:40 (21:40 UTC)

Verwachting

Dit bericht is 4 uur en het 40 minuten geleden gemaakt, om 17:00 UTC
Verwachting geldig van 16 om 18 UTC tot 17 om 24 UTC
Wind 8 kt uit het zuidwesten
Zicht 10 km of meer
Verspreide wolken op 1000 ft
Gebroken wolken op 3000 ft
Kans 30% :
Tijdelijke
van 17 om 05 UTC tot 17 om 10 UTC
Gebroken wolken op 800 ft
Geheel bewolkt op 2600 ft

TAF: FOOL 161700Z 1618/1724 22008KT 9999 SCT010 BKN030 PROB30 TEMPO 1705/1710 BKN008 OVC026

Waarnemingen en weersverwachtingen van meer dan 4000 vliegvelden (METAR en TAF).

De beschikbare stations zijn de gele en rode punten op de kaart.

Ga met uw muis naar het station om de naam te zien.

Klik dan om waarnemingen en weersverwachtingen te zien.

kaart wijzigen: klik op de groene knoppen met een zwart kruis om in te zoomen, op de groene knop met een streepje om uit te zoomen of op de groene pijlen voor aangrenzende kaarten.


METAR-TAF: